Time;durP1;ratioP1;P1;durP2;ratioP2;P2;SDS_P1;SDS_P2;PMS_P1;PMS_P2;Temp;Humidity;BMP_temperature;BMP_pressure;BME280_temperature;BME280_humidity;BME280_pressure;Samples;Min_cycle;Max_cycle;Signal;HPM_P1;HPM_P2
2024/01/11 00:00:44;;;;;;;16.43;15.83;;;;;;;-141.02;100.00;38473.25;5092292;28;20194;-68
2024/01/11 00:03:10;;;;;;;15.97;15.37;;;;;;;-141.02;100.00;38500.09;5092471;28;20292;-68
2024/01/11 00:05:39;;;;;;;20.77;19.87;;;;;;;-141.02;100.00;38502.03;5092508;28;20193;-67
2024/01/11 00:08:06;;;;;;;21.47;20.57;;;;;;;-141.02;100.00;38492.44;5092223;28;20315;-67
2024/01/11 00:10:33;;;;;;;22.23;21.33;;;;;;;-141.02;100.00;38477.09;5092496;28;20284;-68
2024/01/11 00:13:00;;;;;;;21.30;20.40;;;;;;;-141.02;100.00;38446.41;5092360;28;20312;-67
2024/01/11 00:15:27;;;;;;;20.07;19.27;;;;;;;-141.02;100.00;38411.91;5091931;28;20225;-68
2024/01/11 00:17:54;;;;;;;20.77;19.93;;;;;;;-141.02;100.00;38450.25;5092078;28;20193;-68
2024/01/11 00:20:21;;;;;;;17.43;16.73;;;;;;;-141.02;100.00;38465.59;5092279;28;20284;-67
2024/01/11 00:22:49;;;;;;;16.63;16.03;;;;;;;-141.02;100.00;38446.41;5092280;28;20193;-67
2024/01/11 00:25:16;;;;;;;15.97;15.37;;;;;;;-141.02;100.00;38408.06;5091989;28;20229;-67
2024/01/11 00:27:43;;;;;;;16.43;15.83;;;;;;;-141.02;100.00;38446.41;5092274;28;20198;-67
2024/01/11 00:30:10;;;;;;;16.57;15.97;;;;;;;-141.02;100.00;38488.59;5091921;28;20193;-67
2024/01/11 00:32:37;;;;;;;16.40;15.80;;;;;;;-141.02;100.00;38484.75;5091825;28;20260;-67
2024/01/11 00:35:04;;;;;;;18.13;17.43;;;;;;;-141.02;100.00;38461.75;5091846;28;20197;-66
2024/01/11 00:37:31;;;;;;;17.37;16.67;;;;;;;-141.02;100.00;38475.19;5092138;28;20209;-67
2024/01/11 00:40:00;;;;;;;16.90;16.20;;;;;;;-141.02;100.00;38446.41;5091816;28;20280;-67
2024/01/11 00:42:26;;;;;;;16.70;16.10;;;;;;;-141.02;100.00;38431.09;5091846;28;20197;-67
2024/01/11 00:44:54;;;;;;;16.50;15.90;;;;;;;-141.02;100.00;38431.09;5092021;28;20204;-66
2024/01/11 00:47:20;;;;;;;15.50;14.90;;;;;;;-141.02;100.00;38377.41;5092106;28;20578;-66
2024/01/11 00:49:47;;;;;;;15.03;14.43;;;;;;;-141.02;100.00;38423.41;5092028;28;20273;-68
2024/01/11 00:52:14;;;;;;;15.23;14.63;;;;;;;-141.02;100.00;38394.66;5092038;28;20276;-67
2024/01/11 00:54:41;;;;;;;14.77;14.17;;;;;;;-141.02;100.00;38392.75;5092012;28;20262;-67
2024/01/11 00:57:10;;;;;;;14.13;13.63;;;;;;;-141.02;100.00;38408.06;5091906;28;20193;-66
2024/01/11 00:59:37;;;;;;;14.90;14.40;;;;;;;-141.02;100.00;38413.81;5093757;28;20289;-67
2024/01/11 01:02:04;;;;;;;15.10;14.50;;;;;;;-141.02;100.00;38396.56;5095416;28;20201;-67
2024/01/11 01:04:31;;;;;;;14.07;13.57;;;;;;;-141.02;100.00;38408.06;5095723;28;20198;-68
2024/01/11 01:06:58;;;;;;;14.83;14.23;;;;;;;-141.02;100.00;38434.91;5095701;28;20205;-67
2024/01/11 01:09:25;;;;;;;15.33;14.73;;;;;;;-141.02;100.00;38457.91;5095645;28;20281;-66
2024/01/11 01:11:52;;;;;;;16.20;15.50;;;;;;;-141.02;100.00;38471.34;5095557;28;20200;-66
2024/01/11 01:14:20;;;;;;;15.47;14.83;;;;;;;-141.02;100.00;38438.75;5095227;28;20632;-68
2024/01/11 01:16:47;;;;;;;15.63;14.93;;;;;;;-141.02;100.00;38469.44;5095267;28;20593;-67
2024/01/11 01:19:14;;;;;;;16.13;15.43;;;;;;;-141.02;100.00;38438.75;5095127;28;20801;-66
2024/01/11 01:21:41;;;;;;;15.07;14.47;;;;;;;-141.02;100.00;38457.91;5095071;28;20204;-67
2024/01/11 01:24:08;;;;;;;14.47;13.87;;;;;;;-141.02;100.00;38411.91;5095072;28;20601;-67
2024/01/11 01:26:35;;;;;;;15.50;14.80;;;;;;;-141.02;100.00;38442.59;5095263;28;20201;-67
2024/01/11 01:29:02;;;;;;;16.17;15.47;;;;;;;-141.02;100.00;38442.59;5095225;28;20197;-66
2024/01/11 01:31:37;;;;;;;15.27;14.67;;;;;;;-141.02;100.00;38457.91;5094933;28;20193;-67
2024/01/11 01:34:04;;;;;;;16.70;16.00;;;;;;;-141.02;100.00;38488.59;5094818;28;20770;-67
2024/01/11 01:36:31;;;;;;;14.60;14.00;;;;;;;-141.02;100.00;38457.91;5095084;28;20194;-68
2024/01/11 01:38:57;;;;;;;15.27;14.67;;;;;;;-141.02;100.00;38434.91;5094770;28;20552;-66
2024/01/11 01:41:24;;;;;;;15.40;14.80;;;;;;;-141.02;100.00;38442.59;5095123;28;20194;-66
2024/01/11 01:43:52;;;;;;;15.73;15.13;;;;;;;-141.02;100.00;38444.50;5094932;28;20281;-67
2024/01/11 01:46:24;;;;;;;15.03;14.43;;;;;;;-141.02;100.00;38457.91;5094700;28;20193;-66
2024/01/11 01:48:54;;;;;;;15.67;15.07;;;;;;;-141.02;100.00;38427.25;5094659;28;20243;-66
2024/01/11 01:51:22;;;;;;;15.10;14.50;;;;;;;-141.02;100.00;38438.75;5095012;28;20197;-64
2024/01/11 01:53:50;;;;;;;15.20;14.60;;;;;;;-141.02;100.00;38459.84;5094452;28;20261;-67
2024/01/11 01:56:19;;;;;;;15.50;14.90;;;;;;;-141.02;100.00;38408.06;5094479;28;20198;-67
2024/01/11 01:58:46;;;;;;;15.93;15.23;;;;;;;-141.02;100.00;38465.59;5094765;28;20292;-66
2024/01/11 02:01:15;;;;;;;16.77;16.07;;;;;;;-141.02;100.00;38434.91;5094790;28;20204;-66
2024/01/11 02:03:42;;;;;;;15.77;15.07;;;;;;;-141.02;100.00;38473.25;5094350;28;20572;-65
2024/01/11 02:06:10;;;;;;;15.83;15.13;;;;;;;-141.02;100.00;38482.84;5094539;28;20196;-66
2024/01/11 02:08:39;;;;;;;16.03;15.33;;;;;;;-141.02;100.00;38473.25;5094252;28;20750;-66
2024/01/11 02:11:06;;;;;;;16.53;15.83;;;;;;;-141.02;100.00;38431.09;5094153;28;20197;-66
2024/01/11 02:13:33;;;;;;;16.23;15.53;;;;;;;-141.02;100.00;38434.91;5094410;28;20233;-66
2024/01/11 02:16:00;;;;;;;17.37;16.57;;;;;;;-141.02;100.00;38465.59;5093996;28;20233;-66
2024/01/11 02:18:27;;;;;;;15.37;14.67;;;;;;;-141.02;100.00;38431.09;5094011;28;20280;-66
2024/01/11 02:20:56;;;;;;;16.60;15.90;;;;;;;-141.02;100.00;38408.06;5093991;28;20194;-65
2024/01/11 02:23:27;;;;;;;16.87;16.17;;;;;;;-141.02;100.00;38465.59;5094638;28;20194;-66
2024/01/11 02:25:55;;;;;;;15.80;15.13;;;;;;;-141.02;100.00;38421.50;5093946;28;20190;-66
2024/01/11 02:28:22;;;;;;;15.10;14.50;;;;;;;-141.02;100.00;38419.56;5093814;28;20204;-65
2024/01/11 02:30:49;;;;;;;14.67;14.07;;;;;;;-141.02;100.00;38459.84;5093790;28;20281;-66
2024/01/11 02:33:18;;;;;;;14.93;14.33;;;;;;;-141.02;100.00;38423.41;5093970;28;20222;-66
2024/01/11 02:35:45;;;;;;;15.20;14.60;;;;;;;-141.02;100.00;38434.91;5093678;28;20288;-66
2024/01/11 02:38:12;;;;;;;14.77;14.17;;;;;;;-141.02;100.00;38415.75;5093620;28;20204;-66
2024/01/11 02:40:41;;;;;;;15.50;14.90;;;;;;;-141.02;100.00;38448.34;5093591;28;20690;-66
2024/01/11 02:43:12;;;;;;;17.30;16.60;;;;;;;-141.02;100.00;38396.56;5093564;28;20190;-66
2024/01/11 02:45:39;;;;;;;16.27;15.67;;;;;;;-141.02;100.00;38423.41;5093804;28;20194;-67
2024/01/11 02:48:06;;;;;;;16.30;15.60;;;;;;;-141.02;100.00;38390.81;5093428;28;20198;-66
2024/01/11 02:50:33;;;;;;;15.80;15.20;;;;;;;-141.02;100.00;38408.06;5093411;28;20200;-66
2024/01/11 02:53:00;;;;;;;17.03;16.33;;;;;;;-141.02;100.00;38408.06;5093280;28;20267;-66
2024/01/11 02:55:27;;;;;;;16.43;15.73;;;;;;;-141.02;100.00;38411.91;5093357;28;20189;-66
2024/01/11 02:57:54;;;;;;;16.47;15.77;;;;;;;-141.02;100.00;38396.56;5093539;28;20287;-66
2024/01/11 03:00:23;;;;;;;16.30;15.60;;;;;;;-141.02;100.00;38419.56;5093555;28;20202;-66
2024/01/11 03:02:50;;;;;;;15.10;14.50;;;;;;;-141.02;100.00;38411.91;5093206;28;20284;-66
2024/01/11 03:05:17;;;;;;;15.63;15.03;;;;;;;-141.02;100.00;38415.75;5093460;28;20705;-66
2024/01/11 03:07:43;;;;;;;15.37;14.77;;;;;;;-141.02;100.00;38392.75;5093472;28;20200;-64
2024/01/11 03:10:10;;;;;;;15.30;14.70;;;;;;;-141.02;100.00;38408.06;5093302;28;20198;-66
2024/01/11 03:12:37;;;;;;;15.80;15.20;;;;;;;-141.02;100.00;38373.56;5093016;28;20682;-66
2024/01/11 03:15:05;;;;;;;15.60;15.00;;;;;;;-141.02;100.00;38419.56;5092949;28;20248;-65
2024/01/11 03:17:33;;;;;;;14.90;14.30;;;;;;;-141.02;100.00;38415.75;5093196;28;20620;-66
2024/01/11 03:20:00;;;;;;;15.03;14.43;;;;;;;-141.02;100.00;38442.59;5092891;28;20229;-65
2024/01/11 03:22:27;;;;;;;15.53;15.03;;;;;;;-141.02;100.00;38438.75;5092131;28;20204;-66
2024/01/11 03:24:54;;;;;;;15.00;14.50;;;;;;;-141.02;100.00;38446.41;5093087;28;20292;-66
2024/01/11 03:27:21;;;;;;;14.87;14.37;;;;;;;-141.02;100.00;38452.16;5093064;28;20202;-66
2024/01/11 03:29:49;;;;;;;15.73;15.23;;;;;;;-141.02;100.00;38471.34;5092635;28;20566;-66
2024/01/11 03:32:16;;;;;;;15.53;14.93;;;;;;;-141.02;100.00;38488.59;5092954;28;20201;-66
2024/01/11 03:34:44;;;;;;;12.87;12.47;;;;;;;-141.02;100.00;38465.59;5092786;28;20232;-66
2024/01/11 03:37:11;;;;;;;12.77;12.37;;;;;;;-141.02;100.00;38480.94;5092909;28;20202;-66
2024/01/11 03:39:38;;;;;;;15.77;15.17;;;;;;;-141.02;100.00;38457.91;5092813;28;20194;-66
2024/01/11 03:42:06;;;;;;;16.13;15.63;;;;;;;-141.02;100.00;38463.69;5092525;28;20200;-66
2024/01/11 03:44:33;;;;;;;16.83;16.23;;;;;;;-141.02;100.00;38461.75;5092736;28;20198;-66
2024/01/11 03:47:00;;;;;;;17.30;16.70;;;;;;;-141.02;100.00;38496.28;5092451;28;20289;-67
2024/01/11 03:49:27;;;;;;;16.97;16.37;;;;;;;-141.02;100.00;38469.44;5092403;28;20754;-66
2024/01/11 03:51:55;;;;;;;15.80;15.30;;;;;;;-141.02;100.00;38442.59;5092350;28;20281;-66
2024/01/11 03:54:22;;;;;;;15.07;14.57;;;;;;;-141.02;100.00;38446.41;5092649;28;20234;-66
2024/01/11 03:56:49;;;;;;;15.20;14.70;;;;;;;-141.02;100.00;38406.16;5092604;28;20198;-67
2024/01/11 03:59:16;;;;;;;14.70;14.20;;;;;;;-141.02;100.00;38446.41;5092237;28;20667;-65
2024/01/11 04:01:43;;;;;;;13.10;12.70;;;;;;;-141.02;100.00;38448.34;5092530;28;20193;-67
2024/01/11 04:04:12;;;;;;;13.87;13.37;;;;;;;-141.02;100.00;38480.94;5092479;28;20248;-65
2024/01/11 04:06:39;;;;;;;11.97;11.57;;;;;;;-141.02;100.00;38450.25;5092444;28;20212;-66
2024/01/11 04:09:07;;;;;;;14.13;13.63;;;;;;;-141.02;100.00;38488.59;5092116;28;20607;-66
2024/01/11 04:11:34;;;;;;;14.00;13.60;;;;;;;-141.02;100.00;38469.44;5092111;28;20194;-67
2024/01/11 04:14:01;;;;;;;13.10;12.70;;;;;;;-141.02;100.00;38473.25;5092360;28;20225;-66
2024/01/11 04:16:28;;;;;;;12.60;12.20;;;;;;;-141.02;100.00;38471.34;5091997;28;20332;-66
2024/01/11 04:18:55;;;;;;;13.20;12.80;;;;;;;-141.02;100.00;38465.59;5092107;28;20201;-67
2024/01/11 04:21:23;;;;;;;13.70;13.30;;;;;;;-141.02;100.00;38446.41;5092329;28;20216;-67
2024/01/11 04:23:50;;;;;;;14.20;13.80;;;;;;;-141.02;100.00;38505.84;5092062;28;20197;-66
2024/01/11 04:26:19;;;;;;;15.90;15.40;;;;;;;-141.02;100.00;38469.44;5092016;28;20285;-65
2024/01/11 04:28:46;;;;;;;15.50;15.00;;;;;;;-141.02;100.00;38446.41;5092307;28;20200;-67
2024/01/11 04:31:13;;;;;;;14.47;14.00;;;;;;;-141.02;100.00;38448.34;5092248;28;20193;-66
2024/01/11 04:33:41;;;;;;;15.10;14.60;;;;;;;-141.02;100.00;38457.91;5094499;28;20222;-66
2024/01/11 04:36:09;;;;;;;15.40;14.90;;;;;;;-141.02;100.00;38419.56;5096350;28;20201;-66
2024/01/11 04:38:37;;;;;;;15.10;14.60;;;;;;;-141.02;100.00;38461.75;5096230;28;20308;-66
2024/01/11 04:41:08;;;;;;;13.40;13.00;;;;;;;-141.02;100.00;38457.91;5096015;28;20240;-66
2024/01/11 04:43:38;;;;;;;13.47;13.07;;;;;;;-141.02;100.00;38446.41;5095954;28;20272;-66
2024/01/11 04:46:05;;;;;;;13.17;12.77;;;;;;;-141.02;100.00;38419.56;5096127;28;20237;-66
2024/01/11 04:48:32;;;;;;;13.13;12.73;;;;;;;-141.02;100.00;38431.09;5095863;28;20402;-65
2024/01/11 04:50:59;;;;;;;13.10;12.70;;;;;;;-141.02;100.00;38454.09;5095720;28;20312;-66
2024/01/11 04:53:26;;;;;;;12.40;12.00;;;;;;;-141.02;100.00;38465.59;5095923;28;20229;-64
2024/01/11 04:55:52;;;;;;;15.00;14.50;;;;;;;-141.02;100.00;38461.75;5095922;28;20281;-66
2024/01/11 04:58:19;;;;;;;15.30;14.80;;;;;;;-141.02;100.00;38454.09;5095911;28;20244;-64
2024/01/11 05:00:48;;;;;;;15.00;14.50;;;;;;;-141.02;100.00;38494.34;5095550;28;20289;-66
2024/01/11 05:03:15;;;;;;;15.73;15.23;;;;;;;-141.02;100.00;38526.94;5095453;28;20247;-66
2024/01/11 05:05:42;;;;;;;14.40;14.00;;;;;;;-141.02;100.00;38494.34;5095775;28;20197;-67
2024/01/11 05:08:09;;;;;;;14.80;14.30;;;;;;;-141.02;100.00;38507.78;5095476;28;20293;-67
2024/01/11 05:10:37;;;;;;;15.30;14.80;;;;;;;-141.02;100.00;38500.09;5095358;28;20682;-66
2024/01/11 05:13:04;;;;;;;15.60;15.10;;;;;;;-141.02;100.00;38500.09;5095629;28;20300;-66
2024/01/11 05:15:31;;;;;;;15.50;15.00;;;;;;;-141.02;100.00;38525.03;5095140;28;20269;-66
2024/01/11 05:17:59;;;;;;;14.30;13.80;;;;;;;-141.02;100.00;38546.13;5095530;28;20189;-66
2024/01/11 05:20:26;;;;;;;14.00;13.60;;;;;;;-141.02;100.00;38523.09;5095200;28;20269;-66
2024/01/11 05:22:54;;;;;;;13.90;13.50;;;;;;;-141.02;100.00;38515.44;5095422;28;20281;-65
2024/01/11 05:25:21;;;;;;;15.60;15.10;;;;;;;-141.02;100.00;38500.09;5095361;28;20280;-66
2024/01/11 05:27:48;;;;;;;16.27;15.67;;;;;;;-141.02;100.00;38528.84;5095023;28;20646;-67
2024/01/11 05:30:15;;;;;;;14.97;14.47;;;;;;;-141.02;100.00;38549.94;5094995;28;20281;-66
2024/01/11 05:32:42;;;;;;;15.13;14.63;;;;;;;-141.02;100.00;38580.63;5094937;28;20205;-65
2024/01/11 05:35:11;;;;;;;15.60;15.10;;;;;;;-141.02;100.00;38590.22;5095185;28;20231;-66
2024/01/11 05:37:38;;;;;;;16.23;15.63;;;;;;;-141.02;100.00;38653.50;5094813;28;20194;-66
2024/01/11 05:40:05;;;;;;;16.63;16.03;;;;;;;-141.02;100.00;38734.03;5095160;28;20194;-66
2024/01/11 05:42:32;;;;;;;15.17;14.67;;;;;;;-141.02;100.00;38772.38;5094735;28;20198;-64
2024/01/11 05:44:59;;;;;;;15.83;15.33;;;;;;;-141.02;100.00;38845.22;5093991;28;20646;-66
2024/01/11 05:47:26;;;;;;;15.77;15.27;;;;;;;-141.02;100.00;38908.50;5095027;28;20290;-66
2024/01/11 05:49:53;;;;;;;15.90;15.30;;;;;;;-141.02;100.00;38989.03;5094929;28;20208;-66
2024/01/11 05:52:22;;;;;;;16.40;15.80;;;;;;;-141.02;100.00;39040.81;5094842;28;20276;-67
2024/01/11 05:54:48;;;;;;;16.37;15.80;;;;;;;-141.02;100.00;39115.59;5094634;28;20229;-67
2024/01/11 05:57:16;;;;;;;16.37;15.77;;;;;;;-141.02;100.00;39159.72;5095429;28;20201;-66
2024/01/11 05:59:45;;;;;;;15.90;15.30;;;;;;;-141.02;100.00;39253.69;5094424;28;20292;-63
2024/01/11 06:02:12;;;;;;;15.80;15.30;;;;;;;-141.02;100.00;39351.47;5094703;28;20189;-65
2024/01/11 06:04:39;;;;;;;17.00;16.40;;;;;;;-141.02;100.00;39489.56;5094603;28;20201;-67
2024/01/11 06:07:06;;;;;;;16.40;15.80;;;;;;;-141.02;100.00;39631.47;5094293;28;20194;-65
2024/01/11 06:09:34;;;;;;;15.50;14.90;;;;;;;-141.02;100.00;39715.88;5094584;28;20202;-66
2024/01/11 06:12:01;;;;;;;16.30;15.70;;;;;;;-141.02;100.00;39804.09;5094241;28;20281;-66
2024/01/11 06:14:28;;;;;;;15.63;15.03;;;;;;;-141.02;100.00;39760.00;5093905;28;20324;-64
2024/01/11 06:16:55;;;;;;;15.33;14.83;;;;;;;-141.02;100.00;39752.31;5094190;28;20186;-67
2024/01/11 06:19:22;;;;;;;16.10;15.50;;;;;;;-141.02;100.00;39838.63;5094338;28;20250;-67
2024/01/11 06:21:49;;;;;;;15.57;15.07;;;;;;;-141.02;100.00;39800.25;5094400;28;20193;-66
2024/01/11 06:24:16;;;;;;;16.93;16.33;;;;;;;-141.02;100.00;39792.59;5093904;28;20197;-66
2024/01/11 06:26:44;;;;;;;16.90;16.30;;;;;;;-141.02;100.00;39811.78;5093915;28;20208;-67
2024/01/11 06:29:11;;;;;;;16.20;15.60;;;;;;;-141.02;100.00;39838.63;5093918;28;20198;-66
2024/01/11 06:31:38;;;;;;;15.73;15.23;;;;;;;-141.02;100.00;39830.94;5093770;28;20285;-67
2024/01/11 06:34:05;;;;;;;15.33;14.83;;;;;;;-141.02;100.00;39834.78;5093698;28;20683;-67
2024/01/11 06:36:32;;;;;;;15.87;15.37;;;;;;;-141.02;100.00;39903.84;5093689;28;20200;-65
2024/01/11 06:38:59;;;;;;;16.40;15.80;;;;;;;-141.02;100.00;39852.06;5093722;28;20722;-66
2024/01/11 06:41:26;;;;;;;16.53;15.93;;;;;;;-141.02;100.00;39842.47;5094002;28;20224;-64
2024/01/11 06:43:54;;;;;;;16.27;15.67;;;;;;;-141.02;100.00;39949.88;5093863;28;20296;-67
2024/01/11 06:46:22;;;;;;;16.73;16.13;;;;;;;-141.02;100.00;40279.81;5093867;28;20292;-66
2024/01/11 06:48:49;;;;;;;16.00;15.40;;;;;;;-141.02;100.00;40314.34;5093504;28;20190;-66
2024/01/11 06:51:16;;;;;;;16.33;15.73;;;;;;;-141.02;100.00;40306.66;5093473;28;20668;-66
2024/01/11 06:53:43;;;;;;;16.60;16.00;;;;;;;-141.02;100.00;40272.13;5093705;28;20198;-67
2024/01/11 06:56:17;;;;;;;18.73;18.03;;;;;;;-141.02;100.00;40298.97;5092450;28;20286;-67
2024/01/11 06:58:44;;;;;;;19.93;19.03;;;;;;;-141.02;100.00;40331.59;5093550;28;20212;-64
2024/01/11 07:01:13;;;;;;;19.23;18.43;;;;;;;-141.02;100.00;40318.16;5093956;28;20193;-66
2024/01/11 07:03:40;;;;;;;19.23;18.43;;;;;;;-141.02;100.00;40350.78;5093197;28;20243;-68
2024/01/11 07:06:07;;;;;;;19.70;18.90;;;;;;;-141.02;100.00;40337.34;5093416;28;20272;-67
2024/01/11 07:08:34;;;;;;;21.00;20.00;;;;;;;-141.02;100.00;40369.97;5093454;28;20271;-67
2024/01/11 07:11:02;;;;;;;17.53;16.73;;;;;;;-141.02;100.00;40318.16;5093340;28;20190;-67
2024/01/11 07:13:29;;;;;;;22.27;21.27;;;;;;;-141.02;100.00;40345.03;5093045;28;20668;-68
2024/01/11 07:15:57;;;;;;;17.47;16.67;;;;;;;-141.02;100.00;40333.50;5092713;28;20738;-68
2024/01/11 07:18:26;;;;;;;22.10;21.00;;;;;;;-141.02;100.00;40297.06;5092868;28;20668;-67
2024/01/11 07:20:53;;;;;;;24.17;22.97;;;;;;;-141.02;100.00;40298.97;5093226;28;20194;-68
2024/01/11 07:23:20;;;;;;;21.70;20.63;;;;;;;-141.02;100.00;40298.97;5092792;28;20194;-68
2024/01/11 07:25:47;;;;;;;21.03;20.03;;;;;;;-141.02;100.00;40310.50;5092865;28;20244;-68
2024/01/11 07:28:14;;;;;;;20.10;19.20;;;;;;;-141.02;100.00;40325.84;5093068;28;20240;-68
2024/01/11 07:30:41;;;;;;;20.20;19.30;;;;;;;-141.02;100.00;40298.97;5093010;28;20190;-67
2024/01/11 07:33:09;;;;;;;19.33;18.43;;;;;;;-141.02;100.00;40360.38;5093011;28;20229;-68
2024/01/11 07:35:37;;;;;;;20.47;19.47;;;;;;;-141.02;100.00;40396.81;5092813;28;20233;-67
2024/01/11 07:38:04;;;;;;;20.27;19.33;;;;;;;-141.02;100.00;40337.34;5092581;28;20240;-67
2024/01/11 07:40:31;;;;;;;21.63;20.63;;;;;;;-141.02;100.00;40383.38;5092530;28;20190;-66
2024/01/11 07:42:58;;;;;;;20.63;19.53;;;;;;;-141.02;100.00;40398.75;5092849;28;20728;-66
2024/01/11 07:45:25;;;;;;;18.97;18.03;;;;;;;-141.02;100.00;40400.66;5092552;28;20690;-66
2024/01/11 07:47:52;;;;;;;22.07;20.67;;;;;;;-141.02;100.00;40396.81;5092437;28;20271;-67
2024/01/11 07:50:19;;;;;;;23.00;21.80;;;;;;;-141.02;100.00;40379.56;5092714;28;20190;-66
2024/01/11 07:52:47;;;;;;;25.73;24.33;;;;;;;-141.02;100.00;40446.69;5092353;28;20555;-67
2024/01/11 07:55:14;;;;;;;27.87;26.30;;;;;;;-141.02;100.00;40440.94;5092566;28;20234;-67
2024/01/11 07:57:41;;;;;;;26.43;25.03;;;;;;;-141.02;100.00;40427.50;5092339;28;20619;-67
2024/01/11 08:00:09;;;;;;;27.13;25.63;;;;;;;-141.02;100.00;40406.41;5092618;28;20221;-68
2024/01/11 08:02:37;;;;;;;27.60;26.10;;;;;;;-141.02;100.00;40460.13;5092577;28;20277;-68
2024/01/11 08:05:05;;;;;;;27.97;26.47;;;;;;;-141.02;100.00;40425.59;5092481;28;20254;-69
2024/01/11 08:07:32;;;;;;;27.90;26.40;;;;;;;-141.02;100.00;40471.63;5092205;28;20194;-70
2024/01/11 08:10:00;;;;;;;26.60;25.20;;;;;;;-141.02;100.00;40479.31;5092159;28;20679;-71
2024/01/11 08:12:28;;;;;;;27.73;26.23;;;;;;;-141.02;100.00;40490.81;5092155;28;20281;-72
2024/01/11 08:14:55;;;;;;;21.77;20.67;;;;;;;-141.02;100.00;40463.97;5091853;28;20320;-72
2024/01/11 08:17:23;;;;;;;24.40;23.20;;;;;;;-141.02;100.00;40490.81;5092436;28;20201;-72
2024/01/11 08:19:50;;;;;;;25.17;23.87;;;;;;;-141.02;100.00;40475.47;5092377;28;20248;-72
2024/01/11 08:22:16;;;;;;;21.20;20.10;;;;;;;-141.02;100.00;40521.50;5091962;28;20643;-71
2024/01/11 08:24:43;;;;;;;25.87;24.37;;;;;;;-141.02;100.00;40529.19;5092028;28;20194;-71
2024/01/11 08:27:12;;;;;;;24.87;23.57;;;;;;;-141.02;100.00;40590.59;5093139;28;20244;-69
2024/01/11 08:29:39;;;;;;;24.00;22.70;;;;;;;-141.02;100.00;40579.06;5092267;28;20204;-70
2024/01/11 08:32:06;;;;;;;25.17;23.77;;;;;;;-141.02;100.00;40609.75;5092258;28;20194;-71
2024/01/11 08:34:33;;;;;;;27.40;25.80;;;;;;;-141.02;100.00;40605.94;5092103;28;20189;-69
2024/01/11 08:37:00;;;;;;;26.67;25.17;;;;;;;-141.02;100.00;40575.22;5092221;28;20573;-70
2024/01/11 08:39:26;;;;;;;27.37;25.77;;;;;;;-141.02;100.00;40579.06;5091891;28;20664;-71
2024/01/11 08:41:53;;;;;;;24.43;23.13;;;;;;;-141.02;100.00;40627.03;5092235;28;20267;-71
2024/01/11 08:44:21;;;;;;;23.37;22.07;;;;;;;-141.02;100.00;40594.41;5092150;28;20194;-71
2024/01/11 08:46:48;;;;;;;22.70;21.50;;;;;;;-141.02;100.00;40636.63;5091785;28;20652;-70
2024/01/11 08:49:15;;;;;;;23.33;22.13;;;;;;;-141.02;100.00;40644.28;5091788;28;20229;-71
2024/01/11 08:51:42;;;;;;;26.83;25.33;;;;;;;-141.02;100.00;40675.00;5092087;28;20205;-71
2024/01/11 08:54:11;;;;;;;27.63;26.03;;;;;;;-141.02;100.00;40628.94;5092072;28;20196;-71
2024/01/11 08:56:39;;;;;;;25.70;24.30;;;;;;;-141.02;100.00;40675.00;5092028;28;20226;-71
2024/01/11 08:59:08;;;;;;;25.70;24.30;;;;;;;-141.02;100.00;40684.59;5091972;28;20200;-72
2024/01/11 09:01:37;;;;;;;25.93;24.53;;;;;;;-141.02;100.00;40698.00;5091644;28;20201;-71
2024/01/11 09:04:04;;;;;;;21.87;20.67;;;;;;;-141.02;100.00;40744.06;5091580;28;20205;-71
2024/01/11 09:06:32;;;;;;;21.37;20.17;;;;;;;-141.02;100.00;40713.38;5091937;28;20197;-72
2024/01/11 09:08:59;;;;;;;20.47;19.27;;;;;;;-141.02;100.00;40797.78;5091877;28;20569;-73
2024/01/11 09:11:26;;;;;;;23.73;22.33;;;;;;;-141.02;100.00;40755.56;5091574;28;20727;-73
2024/01/11 09:13:53;;;;;;;23.73;22.43;;;;;;;-141.02;100.00;40801.63;5091876;28;20281;-71
2024/01/11 09:16:20;;;;;;;22.53;21.23;;;;;;;-141.02;100.00;40866.84;5091306;28;20283;-74
2024/01/11 09:18:48;;;;;;;23.30;22.00;;;;;;;-141.02;100.00;40878.38;5091518;28;20200;-75
2024/01/11 09:21:15;;;;;;;22.23;20.93;;;;;;;-141.02;100.00;40855.34;5094748;28;20581;-76
2024/01/11 09:23:42;;;;;;;24.10;22.70;;;;;;;-141.02;100.00;40859.19;5095455;28;20644;-75
2024/01/11 09:26:09;;;;;;;24.20;22.80;;;;;;;-141.02;100.00;40905.22;5095453;28;20275;-78
2024/01/11 09:28:36;;;;;;;29.07;27.37;;;;;;;-141.02;100.00;40816.97;5095344;28;20229;-78
2024/01/11 09:31:03;;;;;;;28.17;26.57;;;;;;;-141.02;100.00;40916.75;5095276;28;20225;-78
2024/01/11 09:33:30;;;;;;;27.80;26.20;;;;;;;-141.02;100.00;40939.75;5094951;28;20280;-77
2024/01/11 09:35:58;;;;;;;29.10;27.40;;;;;;;-141.02;100.00;40912.91;5095155;28;20328;-76
2024/01/11 09:38:25;;;;;;;30.47;28.77;;;;;;;-141.02;100.00;40886.03;5095241;28;20204;-74
2024/01/11 09:41:07;;;;;;;27.17;25.57;;;;;;;-141.02;100.00;40924.41;5095089;28;20226;-74
2024/01/11 09:43:35;;;;;;;26.97;25.37;;;;;;;-141.02;100.00;40962.78;5095083;28;20269;-72
2024/01/11 09:46:04;;;;;;;26.17;24.57;;;;;;;-141.02;100.00;40995.41;5095070;28;20194;-71
2024/01/11 09:48:33;;;;;;;30.20;28.40;;;;;;;-141.02;100.00;40974.28;5094710;28;20635;-70
2024/01/11 09:51:03;;;;;;;29.90;28.10;;;;;;;-141.02;100.00;41020.34;5094898;28;20194;-70
2024/01/11 09:53:31;;;;;;;30.20;28.40;;;;;;;-141.02;100.00;41039.53;5094620;28;20687;-69
2024/01/11 09:55:59;;;;;;;28.33;26.60;;;;;;;-141.02;100.00;41039.53;5094768;28;20225;-69
2024/01/11 09:58:26;;;;;;;27.63;25.83;;;;;;;-141.02;100.00;41008.84;5094729;28;20198;-69
2024/01/11 10:00:56;;;;;;;24.70;23.00;;;;;;;-141.02;100.00;40978.13;5094351;28;20666;-68
2024/01/11 10:03:24;;;;;;;23.60;22.03;;;;;;;-141.02;100.00;40981.97;5094747;28;20674;-68
2024/01/11 10:05:56;;;;;;;23.33;21.73;;;;;;;-141.02;100.00;40966.63;5094331;28;20694;-68
2024/01/11 10:08:24;;;;;;;27.20;25.40;;;;;;;-141.02;100.00;41005.00;5094424;28;20190;-68
2024/01/11 10:10:52;;;;;;;26.60;24.90;;;;;;;-141.02;100.00;41035.69;5094221;28;20204;-68
2024/01/11 10:13:20;;;;;;;28.97;27.07;;;;;;;-141.02;100.00;40978.13;5094222;28;20200;-68
2024/01/11 10:15:47;;;;;;;30.50;28.50;;;;;;;-141.02;100.00;40993.47;5094031;28;20265;-68
2024/01/11 10:18:14;;;;;;;27.03;25.33;;;;;;;-141.02;100.00;40987.72;5094121;28;20585;-69
2024/01/11 10:20:41;;;;;;;27.90;26.07;;;;;;;-141.02;100.00;41020.34;5094055;28;20690;-69
2024/01/11 10:23:08;;;;;;;25.87;24.27;;;;;;;-141.02;100.00;41074.06;5094030;28;20281;-69
2024/01/11 10:25:36;;;;;;;30.37;28.57;;;;;;;-141.02;100.00;41104.78;5094035;28;20198;-69
2024/01/11 10:28:04;;;;;;;28.83;27.13;;;;;;;-141.02;100.00;41173.84;5094230;28;20201;-72
2024/01/11 10:30:32;;;;;;;27.43;25.63;;;;;;;-141.02;100.00;41087.50;5093689;28;20229;-69
2024/01/11 10:32:59;;;;;;;24.93;23.33;;;;;;;-141.02;100.00;41177.69;5093821;28;20198;-69
2024/01/11 10:35:26;;;;;;;26.23;24.43;;;;;;;-141.02;100.00;41077.91;5093935;28;20194;-70
2024/01/11 10:37:54;;;;;;;24.40;22.80;;;;;;;-141.02;100.00;41079.81;5093712;28;20660;-69
2024/01/11 10:40:25;;;;;;;26.60;24.90;;;;;;;-141.02;100.00;41051.03;5093997;28;20198;-69
2024/01/11 10:42:53;;;;;;;28.40;26.70;;;;;;;-141.02;100.00;41095.19;5093633;28;20186;-69
2024/01/11 10:45:21;;;;;;;29.30;27.60;;;;;;;-141.02;100.00;41085.59;5093601;28;20722;-68
2024/01/11 10:47:56;;;;;;;26.30;24.70;;;;;;;-141.02;100.00;41217.97;5093485;28;20274;-69
2024/01/11 10:50:24;;;;;;;25.20;23.50;;;;;;;-141.02;100.00;41221.81;5093864;28;20204;-69
2024/01/11 10:53:03;;;;;;;26.60;24.90;;;;;;;-141.02;100.00;41273.63;5093684;28;20225;-70
2024/01/11 10:55:32;;;;;;;21.80;20.30;;;;;;;-141.02;100.00;41265.94;5093674;28;20264;-69